Time,TemperatureF,DewpointF,PressureIn,WindDirection,WindDirectionDegrees,WindSpeedMPH,WindSpeedGustMPH,Humidity,HourlyPrecipIn,Conditions,Clouds,dailyrainin,SoftwareType,DateUTC
2013-04-30 00:02:00,65.5,45.8,29.81,ENE,68,0.0,9.0,49,0.00,,,0.00,Wunderground v.1.13,2013-04-30 07:02:00,
2013-04-30 00:07:00,65.3,46.2,29.82,ENE,68,0.0,9.0,50,0.00,,,0.00,Wunderground v.1.13,2013-04-30 07:07:00,
2013-04-30 00:17:00,65.0,45.4,29.81,ENE,67,0.0,9.0,49,0.00,,,0.00,Wunderground v.1.13,2013-04-30 07:17:00,
2013-04-30 00:27:00,64.8,45.2,29.81,ENE,67,0.0,9.0,49,0.00,,,0.00,Wunderground v.1.13,2013-04-30 07:27:00,
2013-04-30 00:32:00,64.7,45.6,29.81,ENE,67,0.0,9.0,50,0.00,,,0.00,Wunderground v.1.13,2013-04-30 07:32:00,
2013-04-30 00:42:00,64.7,45.6,29.81,ENE,67,0.0,9.0,50,0.00,,,0.00,Wunderground v.1.13,2013-04-30 07:42:00,
2013-04-30 00:47:00,64.7,45.6,29.81,ENE,67,0.0,9.0,50,0.00,,,0.00,Wunderground v.1.13,2013-04-30 07:47:00,
2013-04-30 00:57:00,64.5,45.4,29.81,ENE,67,0.0,9.0,50,0.00,,,0.00,Wunderground v.1.13,2013-04-30 07:57:00,
2013-04-30 01:07:00,64.3,45.3,29.82,ENE,67,0.0,0.0,50,0.00,,,0.00,Wunderground v.1.13,2013-04-30 08:07:00,
2013-04-30 01:17:00,64.0,45.0,29.81,ENE,67,0.0,0.0,50,0.00,,,0.00,Wunderground v.1.13,2013-04-30 08:17:00,
2013-04-30 01:22:00,63.9,45.4,29.82,ENE,67,0.0,0.0,51,0.00,,,0.00,Wunderground v.1.13,2013-04-30 08:22:00,
2013-04-30 01:32:00,63.7,45.2,29.82,ENE,67,0.0,0.0,51,0.00,,,0.00,Wunderground v.1.13,2013-04-30 08:32:00,
2013-04-30 01:42:00,63.4,45.5,29.81,ENE,67,0.0,2.0,52,0.00,,,0.00,Wunderground v.1.13,2013-04-30 08:42:00,
2013-04-30 01:52:00,63.1,45.7,29.80,ENE,67,1.0,4.0,53,0.00,,,0.00,Wunderground v.1.13,2013-04-30 08:52:00,
2013-04-30 01:57:00,62.9,45.5,29.80,ENE,67,2.0,2.0,53,0.00,,,0.00,Wunderground v.1.13,2013-04-30 08:57:00,
2013-04-30 02:06:00,62.6,45.2,29.80,ENE,67,1.0,1.0,53,0.00,,,0.00,Wunderground v.1.13,2013-04-30 09:06:00,
2013-04-30 02:12:00,62.4,45.0,29.80,ENE,67,0.0,4.0,53,0.00,,,0.00,Wunderground v.1.13,2013-04-30 09:12:00,
2013-04-30 02:17:00,62.3,44.9,29.80,ENE,67,0.0,4.0,53,0.00,,,0.00,Wunderground v.1.13,2013-04-30 09:17:00,
2013-04-30 02:27:00,62.1,45.2,29.80,ENE,67,0.0,4.0,54,0.00,,,0.00,Wunderground v.1.13,2013-04-30 09:27:00,
2013-04-30 02:37:00,62.0,45.2,29.79,ENE,67,0.0,4.0,54,0.00,,,0.00,Wunderground v.1.13,2013-04-30 09:37:00,
2013-04-30 02:42:00,61.8,44.5,29.80,ENE,67,0.0,4.0,53,0.00,,,0.00,Wunderground v.1.13,2013-04-30 09:42:00,
2013-04-30 02:52:00,61.8,44.5,29.80,ENE,67,0.0,4.0,53,0.00,,,0.00,Wunderground v.1.13,2013-04-30 09:52:00,
2013-04-30 03:02:00,61.8,44.5,29.80,ENE,67,0.0,4.0,53,0.00,,,0.00,Wunderground v.1.13,2013-04-30 10:02:00,
2013-04-30 03:07:00,61.6,44.3,29.80,ENE,67,0.0,4.0,53,0.00,,,0.00,Wunderground v.1.13,2013-04-30 10:07:00,
2013-04-30 03:17:00,61.6,44.3,29.81,ENE,67,0.0,4.0,53,0.00,,,0.00,Wunderground v.1.13,2013-04-30 10:17:00,
2013-04-30 03:27:00,61.8,44.5,29.80,ENE,67,0.0,4.0,53,0.00,,,0.00,Wunderground v.1.13,2013-04-30 10:27:00,
2013-04-30 03:37:00,61.8,44.5,29.79,ENE,67,1.0,4.0,53,0.00,,,0.00,Wunderground v.1.13,2013-04-30 10:37:00,
2013-04-30 03:47:00,61.3,44.5,29.80,ENE,69,3.0,4.0,54,0.00,,,0.00,Wunderground v.1.13,2013-04-30 10:47:00,
2013-04-30 03:52:00,61.2,44.4,29.80,ENE,69,3.0,3.0,54,0.00,,,0.00,Wunderground v.1.13,2013-04-30 10:52:00,
2013-04-30 04:02:00,60.9,44.6,29.79,ENE,69,3.0,4.0,55,0.00,,,0.00,Wunderground v.1.13,2013-04-30 11:02:00,
2013-04-30 04:12:00,60.5,44.2,29.79,ENE,69,2.0,4.0,55,0.00,,,0.00,Wunderground v.1.13,2013-04-30 11:12:00,
2013-04-30 04:17:00,60.5,44.7,29.80,ENE,69,1.0,1.0,56,0.00,,,0.00,Wunderground v.1.13,2013-04-30 11:17:00,
2013-04-30 04:27:00,60.2,44.0,29.80,ENE,69,0.0,4.0,55,0.00,,,0.00,Wunderground v.1.13,2013-04-30 11:27:00,
2013-04-30 04:32:00,60.2,44.0,29.80,ENE,69,0.0,4.0,55,0.00,,,0.00,Wunderground v.1.13,2013-04-30 11:32:00,
2013-04-30 04:37:00,60.1,43.9,29.80,ENE,69,0.0,4.0,55,0.00,,,0.00,Wunderground v.1.13,2013-04-30 11:37:00,
2013-04-30 04:47:00,60.1,43.9,29.80,ENE,69,0.0,4.0,55,0.00,,,0.00,Wunderground v.1.13,2013-04-30 11:47:00,
2013-04-30 04:52:00,60.1,44.3,29.80,ENE,69,0.0,4.0,56,0.00,,,0.00,Wunderground v.1.13,2013-04-30 11:52:00,
2013-04-30 05:01:00,59.5,44.7,29.80,NW,306,1.0,1.0,58,0.00,,,0.00,Wunderground v.1.13,2013-04-30 12:01:00,
2013-04-30 05:07:00,59.2,44.4,29.80,NW,306,0.0,4.0,58,0.00,,,0.00,Wunderground v.1.13,2013-04-30 12:07:00,
2013-04-30 05:12:00,59.0,43.8,29.80,NW,306,0.0,4.0,57,0.00,,,0.00,Wunderground v.1.13,2013-04-30 12:12:00,
2013-04-30 05:22:00,58.9,43.7,29.80,NE,43,0.0,4.0,57,0.00,,,0.00,Wunderground v.1.13,2013-04-30 12:22:00,
2013-04-30 05:32:00,58.7,44.4,29.80,NE,43,0.0,4.0,59,0.00,,,0.00,Wunderground v.1.13,2013-04-30 12:32:00,
2013-04-30 05:41:00,58.3,44.5,29.81,East,94,2.0,4.0,60,0.00,,,0.00,Wunderground v.1.13,2013-04-30 12:41:00,
2013-04-30 05:46:00,58.0,44.2,29.81,East,94,3.0,3.0,60,0.00,,,0.00,Wunderground v.1.13,2013-04-30 12:46:00,
2013-04-30 05:52:00,57.6,44.2,29.81,East,94,2.0,2.0,61,0.00,,,0.00,Wunderground v.1.13,2013-04-30 12:52:00,
2013-04-30 06:02:00,57.5,44.1,29.82,East,94,0.0,4.0,61,0.00,,,0.00,Wunderground v.1.13,2013-04-30 13:02:00,
2013-04-30 06:07:00,57.3,44.0,29.82,East,94,0.0,4.0,61,0.00,,,0.00,Wunderground v.1.13,2013-04-30 13:07:00,
2013-04-30 06:16:00,57.2,43.9,29.83,East,94,0.0,4.0,61,0.00,,,0.00,Wunderground v.1.13,2013-04-30 13:16:00,
2013-04-30 06:22:00,57.2,44.3,29.82,East,94,0.0,4.0,62,0.00,,,0.00,Wunderground v.1.13,2013-04-30 13:22:00,
2013-04-30 06:32:00,57.5,44.6,29.83,East,94,0.0,4.0,62,0.00,,,0.00,Wunderground v.1.13,2013-04-30 13:32:00,
2013-04-30 06:37:00,57.8,45.3,29.82,East,94,1.0,4.0,63,0.00,,,0.00,Wunderground v.1.13,2013-04-30 13:37:00,
2013-04-30 06:47:00,58.6,45.6,29.82,East,80,4.0,4.0,62,0.00,,,0.00,Wunderground v.1.13,2013-04-30 13:47:00,
2013-04-30 06:52:00,59.0,45.6,29.82,East,84,4.0,4.0,61,0.00,,,0.00,Wunderground v.1.13,2013-04-30 13:52:00,
2013-04-30 07:02:00,59.9,45.5,29.82,East,88,4.0,5.0,59,0.00,,,0.00,Wunderground v.1.13,2013-04-30 14:02:00,
2013-04-30 07:12:00,60.7,46.7,29.82,East,85,4.0,4.0,60,0.00,,,0.00,Wunderground v.1.13,2013-04-30 14:12:00,
2013-04-30 07:22:00,61.5,47.0,29.83,East,85,3.0,3.0,59,0.00,,,0.00,Wunderground v.1.13,2013-04-30 14:22:00,
2013-04-30 07:32:00,62.4,46.5,29.83,East,86,4.0,5.0,56,0.00,,,0.00,Wunderground v.1.13,2013-04-30 14:32:00,
2013-04-30 07:42:00,63.2,47.2,29.83,ENE,77,5.0,5.0,56,0.00,,,0.00,Wunderground v.1.13,2013-04-30 14:42:00,
2013-04-30 07:47:00,63.4,46.9,29.82,East,80,5.0,5.0,55,0.00,,,0.00,Wunderground v.1.13,2013-04-30 14:47:00,
2013-04-30 07:56:00,64.0,48.0,29.81,ESE,106,5.0,5.0,56,0.00,,,0.00,Wunderground v.1.13,2013-04-30 14:56:00,
2013-04-30 08:02:00,64.7,46.7,29.81,ESE,103,6.0,6.0,52,0.00,,,0.00,Wunderground v.1.13,2013-04-30 15:02:00,
2013-04-30 08:07:00,65.2,47.6,29.81,ESE,102,5.0,5.0,53,0.00,,,0.00,Wunderground v.1.13,2013-04-30 15:07:00,
2013-04-30 08:17:00,66.1,48.0,29.82,SE,132,1.0,1.0,52,0.00,,,0.00,Wunderground v.1.13,2013-04-30 15:17:00,
2013-04-30 08:22:00,66.3,47.1,29.82,SE,132,0.0,4.0,50,0.00,,,0.00,Wunderground v.1.13,2013-04-30 15:22:00,
2013-04-30 08:32:00,66.1,48.5,29.82,SE,132,0.0,4.0,53,0.00,,,0.00,Wunderground v.1.13,2013-04-30 15:32:00,
2013-04-30 08:42:00,66.1,49.5,29.83,WNW,282,3.0,4.0,55,0.00,,,0.00,Wunderground v.1.13,2013-04-30 15:42:00,
2013-04-30 08:52:00,66.0,48.9,29.84,West,261,3.0,6.0,54,0.00,,,0.00,Wunderground v.1.13,2013-04-30 15:52:00,
2013-04-30 08:57:00,66.1,48.5,29.84,WSW,258,3.0,4.0,53,0.00,,,0.00,Wunderground v.1.13,2013-04-30 15:57:00,
2013-04-30 09:07:00,66.6,48.4,29.84,West,265,1.0,4.0,52,0.00,,,0.00,Wunderground v.1.13,2013-04-30 16:07:00,
2013-04-30 09:16:00,67.3,49.6,29.84,WNW,301,2.0,2.0,53,0.00,,,0.00,Wunderground v.1.13,2013-04-30 16:16:00,
2013-04-30 09:21:00,67.6,49.3,29.85,WSW,253,2.0,2.0,52,0.00,,,0.00,Wunderground v.1.13,2013-04-30 16:21:00,
2013-04-30 09:31:00,68.1,49.8,29.85,WNW,295,1.0,1.0,52,0.00,,,0.00,Wunderground v.1.13,2013-04-30 16:31:00,
2013-04-30 09:37:00,68.4,50.1,29.85,WNW,292,1.0,1.0,52,0.00,,,0.00,Wunderground v.1.13,2013-04-30 16:37:00,
2013-04-30 09:46:00,68.8,50.5,29.85,WSW,250,1.0,1.0,52,0.00,,,0.00,Wunderground v.1.13,2013-04-30 16:46:00,
2013-04-30 09:52:00,68.9,51.1,29.85,West,276,1.0,1.0,53,0.00,,,0.00,Wunderground v.1.13,2013-04-30 16:52:00,
2013-04-30 10:01:00,69.4,51.5,29.86,West,261,1.0,1.0,53,0.00,,,0.00,Wunderground v.1.13,2013-04-30 17:01:00,
2013-04-30 10:07:00,69.9,50.9,29.86,West,278,1.0,1.0,51,0.00,,,0.00,Wunderground v.1.13,2013-04-30 17:07:00,
2013-04-30 10:17:00,70.9,49.7,29.86,WNW,284,1.0,1.0,47,0.00,,,0.00,Wunderground v.1.13,2013-04-30 17:17:00,
2013-04-30 10:22:00,71.3,48.9,29.86,WSW,250,1.0,1.0,45,0.00,,,0.00,Wunderground v.1.13,2013-04-30 17:22:00,
2013-04-30 10:31:00,72.0,47.6,29.86,NW,322,0.0,4.0,42,0.00,,,0.00,Wunderground v.1.13,2013-04-30 17:31:00,
2013-04-30 10:42:00,72.8,47.1,29.85,WSW,248,0.0,4.0,40,0.00,,,0.00,Wunderground v.1.13,2013-04-30 17:42:00,
2013-04-30 10:52:00,73.5,48.4,29.85,WNW,302,0.0,4.0,41,0.00,,,0.00,Wunderground v.1.13,2013-04-30 17:52:00,
2013-04-30 11:01:00,74.2,47.6,29.86,West,263,1.0,1.0,39,0.00,,,0.00,Wunderground v.1.13,2013-04-30 18:01:00,
2013-04-30 11:07:00,74.6,48.7,29.86,West,263,1.0,1.0,40,0.00,,,0.00,Wunderground v.1.13,2013-04-30 18:07:00,
2013-04-30 11:16:00,75.4,49.4,29.86,WNW,288,0.0,4.0,40,0.00,,,0.00,Wunderground v.1.13,2013-04-30 18:16:00,
2013-04-30 11:22:00,76.0,51.2,29.86,West,281,0.0,4.0,42,0.00,,,0.00,Wunderground v.1.13,2013-04-30 18:22:00,
2013-04-30 11:32:00,76.1,50.7,29.86,NW,317,0.0,4.0,41,0.00,,,0.00,Wunderground v.1.13,2013-04-30 18:32:00,
2013-04-30 11:42:00,76.5,50.4,29.85,WSW,238,0.0,4.0,40,0.00,,,0.00,Wunderground v.1.13,2013-04-30 18:42:00,
2013-04-30 11:47:00,76.7,51.2,29.86,West,269,0.0,4.0,41,0.00,,,0.00,Wunderground v.1.13,2013-04-30 18:47:00,
2013-04-30 11:56:00,76.8,50.0,29.86,WNW,300,1.0,10.0,39,0.00,,,0.00,Wunderground v.1.13,2013-04-30 18:56:00,
2013-04-30 12:02:00,76.7,49.2,29.86,WNW,282,2.0,2.0,38,0.00,,,0.00,Wunderground v.1.13,2013-04-30 19:02:00,
2013-04-30 12:07:00,76.5,49.0,29.86,WNW,297,1.0,4.0,38,0.00,,,0.00,Wunderground v.1.13,2013-04-30 19:07:00,
2013-04-30 12:12:00,76.5,47.6,29.86,WNW,282,1.0,4.0,36,0.00,,,0.00,Wunderground v.1.13,2013-04-30 19:12:00,
2013-04-30 12:21:00,76.8,46.3,29.86,West,270,1.0,1.0,34,0.00,,,0.00,Wunderground v.1.13,2013-04-30 19:21:00,
2013-04-30 12:27:00,76.8,45.5,29.86,NNW,330,2.0,4.0,33,0.00,,,0.00,Wunderground v.1.13,2013-04-30 19:27:00,
2013-04-30 12:37:00,76.8,43.9,29.86,West,273,2.0,4.0,31,0.00,,,0.00,Wunderground v.1.13,2013-04-30 19:37:00,
2013-04-30 12:47:00,77.0,43.2,29.86,West,269,2.0,4.0,30,0.00,,,0.00,Wunderground v.1.13,2013-04-30 19:47:00,
2013-04-30 12:57:00,77.2,41.6,29.86,West,259,3.0,4.0,28,0.00,,,0.00,Wunderground v.1.13,2013-04-30 19:57:00,
2013-04-30 13:02:00,77.7,42.0,29.86,West,271,2.0,2.0,28,0.00,,,0.00,Wunderground v.1.13,2013-04-30 20:02:00,
2013-04-30 13:07:00,78.3,40.6,29.86,West,263,1.0,1.0,26,0.00,,,0.00,Wunderground v.1.13,2013-04-30 20:07:00,
2013-04-30 13:17:00,77.9,39.2,29.87,West,269,2.0,2.0,25,0.00,,,0.00,Wunderground v.1.13,2013-04-30 20:17:00,
2013-04-30 13:27:00,79.0,38.0,29.86,WNW,283,2.0,2.0,23,0.00,,,0.00,Wunderground v.1.13,2013-04-30 20:27:00,
2013-04-30 13:37:00,77.9,38.2,29.86,West,271,2.0,3.0,24,0.00,,,0.00,Wunderground v.1.13,2013-04-30 20:37:00,
2013-04-30 13:42:00,77.6,36.8,29.87,West,272,2.0,3.0,23,0.00,,,0.00,Wunderground v.1.13,2013-04-30 20:42:00,
2013-04-30 13:52:00,78.1,37.3,29.86,West,279,2.0,7.0,23,0.00,,,0.00,Wunderground v.1.13,2013-04-30 20:52:00,
2013-04-30 14:02:00,78.8,37.9,29.87,West,261,2.0,7.0,23,0.00,,,0.00,Wunderground v.1.13,2013-04-30 21:02:00,
2013-04-30 14:07:00,78.8,37.9,29.87,West,271,3.0,7.0,23,0.00,,,0.00,Wunderground v.1.13,2013-04-30 21:07:00,
2013-04-30 14:17:00,78.8,36.7,29.87,West,261,3.0,7.0,22,0.00,,,0.00,Wunderground v.1.13,2013-04-30 21:17:00,
2013-04-30 14:27:00,78.5,38.7,29.87,West,265,2.0,2.0,24,0.00,,,0.00,Wunderground v.1.13,2013-04-30 21:27:00,
2013-04-30 14:32:00,78.3,36.3,29.87,West,281,1.0,7.0,22,0.00,,,0.00,Wunderground v.1.13,2013-04-30 21:32:00,
2013-04-30 14:42:00,79.2,39.3,29.87,WNW,287,3.0,3.0,24,0.00,,,0.00,Wunderground v.1.13,2013-04-30 21:42:00,
2013-04-30 14:47:00,79.2,35.9,29.87,West,262,2.0,2.0,21,0.00,,,0.00,Wunderground v.1.13,2013-04-30 21:47:00,
2013-04-30 14:52:00,78.8,36.7,29.86,WNW,287,3.0,3.0,22,0.00,,,0.00,Wunderground v.1.13,2013-04-30 21:52:00,
2013-04-30 15:01:00,78.1,36.1,29.87,West,277,1.0,1.0,22,0.00,,,0.00,Wunderground v.1.13,2013-04-30 22:01:00,
2013-04-30 15:07:00,77.9,38.2,29.87,West,273,1.0,7.0,24,0.00,,,0.00,Wunderground v.1.13,2013-04-30 22:07:00,
2013-04-30 15:17:00,76.8,35.1,29.87,West,276,3.0,7.0,22,0.00,,,0.00,Wunderground v.1.13,2013-04-30 22:17:00,
2013-04-30 15:27:00,76.0,35.5,29.87,West,277,2.0,7.0,23,0.00,,,0.00,Wunderground v.1.13,2013-04-30 22:27:00,
2013-04-30 15:37:00,76.5,32.4,29.87,West,279,4.0,7.0,20,0.00,,,0.00,Wunderground v.1.13,2013-04-30 22:37:00,
2013-04-30 15:42:00,76.8,33.9,29.87,West,269,3.0,7.0,21,0.00,,,0.00,Wunderground v.1.13,2013-04-30 22:42:00,
2013-04-30 15:52:00,77.2,33.0,29.87,North,351,3.0,3.0,20,0.00,,,0.00,Wunderground v.1.13,2013-04-30 22:52:00,
2013-04-30 16:02:00,77.2,33.0,29.86,WSW,250,3.0,7.0,20,0.00,,,0.00,Wunderground v.1.13,2013-04-30 23:02:00,
2013-04-30 16:12:00,77.6,34.6,29.86,WSW,246,2.0,7.0,21,0.00,,,0.00,Wunderground v.1.13,2013-04-30 23:12:00,
2013-04-30 16:17:00,77.6,34.6,29.87,West,263,2.0,8.0,21,0.00,,,0.00,Wunderground v.1.13,2013-04-30 23:17:00,
2013-04-30 16:27:00,77.6,33.3,29.86,WSW,240,3.0,7.0,20,0.00,,,0.00,Wunderground v.1.13,2013-04-30 23:27:00,
2013-04-30 16:37:00,77.4,33.2,29.86,West,271,3.0,3.0,20,0.00,,,0.00,Wunderground v.1.13,2013-04-30 23:37:00,
2013-04-30 16:47:00,77.4,31.9,29.86,NW,315,3.0,3.0,19,0.00,,,0.00,Wunderground v.1.13,2013-04-30 23:47:00,
2013-04-30 16:57:00,77.4,35.6,29.86,NW,313,1.0,1.0,22,0.00,,,0.00,Wunderground v.1.13,2013-04-30 23:57:00,
2013-04-30 17:07:00,76.8,30.1,29.86,WNW,286,2.0,7.0,18,0.00,,,0.00,Wunderground v.1.13,2013-05-01 00:07:00,
2013-04-30 17:17:00,76.7,30.0,29.87,NW,306,3.0,7.0,18,0.00,,,0.00,Wunderground v.1.13,2013-05-01 00:17:00,
2013-04-30 17:27:00,76.3,28.3,29.88,West,279,3.0,7.0,17,0.00,,,0.00,Wunderground v.1.13,2013-05-01 00:27:00,
2013-04-30 17:37:00,76.0,30.7,29.88,WSW,237,2.0,2.0,19,0.00,,,0.00,Wunderground v.1.13,2013-05-01 00:37:00,
2013-04-30 17:47:00,75.8,30.6,29.88,NNW,334,2.0,2.0,19,0.00,,,0.00,Wunderground v.1.13,2013-05-01 00:47:00,
2013-04-30 17:52:00,75.8,33.1,29.88,WSW,258,1.0,7.0,21,0.00,,,0.00,Wunderground v.1.13,2013-05-01 00:52:00,
2013-04-30 17:57:00,75.6,30.4,29.88,West,270,1.0,1.0,19,0.00,,,0.00,Wunderground v.1.13,2013-05-01 00:57:00,
2013-04-30 18:02:00,75.6,31.7,29.88,WSW,246,1.0,7.0,20,0.00,,,0.00,Wunderground v.1.13,2013-05-01 01:02:00,
2013-04-30 18:12:00,75.8,30.6,29.88,WNW,295,1.0,1.0,19,0.00,,,0.00,Wunderground v.1.13,2013-05-01 01:12:00,
2013-04-30 18:17:00,75.6,27.7,29.87,WNW,285,1.0,7.0,17,0.00,,,0.00,Wunderground v.1.13,2013-05-01 01:17:00,
2013-04-30 18:26:00,75.4,30.2,29.87,WNW,291,1.0,7.0,19,0.00,,,0.00,Wunderground v.1.13,2013-05-01 01:26:00,
2013-04-30 18:32:00,75.3,30.2,29.87,West,263,1.0,1.0,19,0.00,,,0.00,Wunderground v.1.13,2013-05-01 01:32:00,
2013-04-30 18:37:00,75.1,31.3,29.87,WNW,296,1.0,7.0,20,0.00,,,0.00,Wunderground v.1.13,2013-05-01 01:37:00,
2013-04-30 18:42:00,74.9,29.8,29.87,West,265,1.0,1.0,19,0.00,,,0.00,Wunderground v.1.13,2013-05-01 01:42:00,
2013-04-30 18:52:00,74.4,30.7,29.88,West,277,0.0,7.0,20,0.00,,,0.00,Wunderground v.1.13,2013-05-01 01:52:00,
2013-04-30 19:02:00,73.7,31.3,29.87,WNW,300,0.0,7.0,21,0.00,,,0.00,Wunderground v.1.13,2013-05-01 02:02:00,
2013-04-30 19:11:00,72.5,30.3,29.87,NW,320,0.0,7.0,21,0.00,,,0.00,Wunderground v.1.13,2013-05-01 02:11:00,
2013-04-30 19:16:00,72.0,28.7,29.86,West,265,0.0,7.0,20,0.00,,,0.00,Wunderground v.1.13,2013-05-01 02:16:00,
2013-04-30 19:22:00,71.5,29.5,29.87,WSW,256,0.0,7.0,21,0.00,,,0.00,Wunderground v.1.13,2013-05-01 02:22:00,
2013-04-30 19:27:00,70.9,29.0,29.87,West,271,0.0,7.0,21,0.00,,,0.00,Wunderground v.1.13,2013-05-01 02:27:00,
2013-04-30 19:37:00,70.3,27.3,29.88,West,271,0.0,7.0,20,0.00,,,0.00,Wunderground v.1.13,2013-05-01 02:37:00,
2013-04-30 19:46:00,69.6,26.7,29.88,West,271,0.0,7.0,20,0.00,,,0.00,Wunderground v.1.13,2013-05-01 02:46:00,
2013-04-30 19:52:00,69.3,26.5,29.88,West,271,0.0,7.0,20,0.00,,,0.00,Wunderground v.1.13,2013-05-01 02:52:00,
2013-04-30 20:01:00,68.8,26.1,29.88,West,271,0.0,7.0,20,0.00,,,0.00,Wunderground v.1.13,2013-05-01 03:01:00,
2013-04-30 20:07:00,68.4,25.7,29.88,West,271,0.0,7.0,20,0.00,,,0.00,Wunderground v.1.13,2013-05-01 03:07:00,
2013-04-30 20:16:00,67.9,26.5,29.88,West,273,0.0,7.0,21,0.00,,,0.00,Wunderground v.1.13,2013-05-01 03:16:00,
2013-04-30 20:21:00,67.6,27.4,29.88,West,275,0.0,7.0,22,0.00,,,0.00,Wunderground v.1.13,2013-05-01 03:21:00,
2013-04-30 20:27:00,67.4,26.1,29.88,West,275,0.0,7.0,21,0.00,,,0.00,Wunderground v.1.13,2013-05-01 03:27:00,
2013-04-30 20:37:00,66.9,23.3,29.89,West,275,0.0,7.0,19,0.00,,,0.00,Wunderground v.1.13,2013-05-01 03:37:00,
2013-04-30 20:46:00,66.6,24.2,29.89,ENE,78,0.0,7.0,20,0.00,,,0.00,Wunderground v.1.13,2013-05-01 03:46:00,
2013-04-30 20:51:00,66.3,26.3,29.90,ENE,76,3.0,7.0,22,0.00,,,0.00,Wunderground v.1.13,2013-05-01 03:51:00,
2013-04-30 20:57:00,66.1,29.2,29.89,East,84,4.0,7.0,25,0.00,,,0.00,Wunderground v.1.13,2013-05-01 03:57:00,
2013-04-30 21:01:00,66.0,30.1,29.89,NE,56,3.0,3.0,26,0.00,,,0.00,Wunderground v.1.13,2013-05-01 04:01:00,
2013-04-30 21:07:00,65.8,29.9,29.90,East,90,3.0,7.0,26,0.00,,,0.00,Wunderground v.1.13,2013-05-01 04:07:00,
2013-04-30 21:12:00,65.8,28.0,29.90,ENE,77,4.0,7.0,24,0.00,,,0.00,Wunderground v.1.13,2013-05-01 04:12:00,
2013-04-30 21:22:00,66.8,26.7,29.89,NE,51,6.0,6.0,22,0.00,,,0.00,Wunderground v.1.13,2013-05-01 04:22:00,
2013-04-30 21:26:00,67.3,23.6,29.89,East,79,7.0,7.0,19,0.00,,,0.00,Wunderground v.1.13,2013-05-01 04:26:00,
2013-04-30 21:32:00,67.8,22.7,29.90,East,79,7.0,9.0,18,0.00,,,0.00,Wunderground v.1.13,2013-05-01 04:32:00,
2013-04-30 21:37:00,67.9,22.8,29.90,East,90,6.0,8.0,18,0.00,,,0.00,Wunderground v.1.13,2013-05-01 04:37:00,
2013-04-30 21:47:00,67.9,20.0,29.90,East,80,6.0,7.0,16,0.00,,,0.00,Wunderground v.1.13,2013-05-01 04:47:00,
2013-04-30 21:52:00,67.9,18.5,29.90,ENE,73,6.0,6.0,15,0.00,,,0.00,Wunderground v.1.13,2013-05-01 04:52:00,
2013-04-30 22:02:00,68.1,15.3,29.91,ENE,66,6.0,6.0,13,0.00,,,0.00,Wunderground v.1.13,2013-05-01 05:02:00,
2013-04-30 22:06:00,68.1,15.3,29.91,ENE,76,6.0,6.0,13,0.00,,,0.00,Wunderground v.1.13,2013-05-01 05:06:00,
2013-04-30 22:12:00,67.9,15.2,29.91,NE,46,5.0,5.0,13,0.00,,,0.00,Wunderground v.1.13,2013-05-01 05:12:00,
2013-04-30 22:21:00,67.6,13.1,29.90,East,82,6.0,16.0,12,0.00,,,0.00,Wunderground v.1.13,2013-05-01 05:21:00,
2013-04-30 22:27:00,67.6,14.9,29.90,NE,36,6.0,6.0,13,0.00,,,0.00,Wunderground v.1.13,2013-05-01 05:27:00,
2013-04-30 22:36:00,67.3,12.9,29.91,East,92,6.0,10.0,12,0.00,,,0.00,Wunderground v.1.13,2013-05-01 05:36:00,
2013-04-30 22:42:00,67.1,12.7,29.91,East,94,5.0,12.0,12,0.00,,,0.00,Wunderground v.1.13,2013-05-01 05:42:00,
2013-04-30 22:52:00,66.9,10.6,29.91,ENE,69,7.0,7.0,11,0.00,,,0.00,Wunderground v.1.13,2013-05-01 05:52:00,
2013-04-30 22:57:00,66.9,8.5,29.91,East,80,8.0,8.0,10,0.00,,,0.00,Wunderground v.1.13,2013-05-01 05:57:00,
2013-04-30 23:07:00,67.1,10.8,29.91,ENE,71,8.0,8.0,11,0.00,,,0.00,Wunderground v.1.13,2013-05-01 06:07:00,
2013-04-30 23:12:00,67.1,8.6,29.91,ENE,70,9.0,9.0,10,0.00,,,0.00,Wunderground v.1.13,2013-05-01 06:12:00,
2013-04-30 23:22:00,66.9,8.5,29.91,NE,51,9.0,13.0,10,0.00,,,0.00,Wunderground v.1.13,2013-05-01 06:22:00,
2013-04-30 23:27:00,66.9,10.6,29.91,ENE,71,10.0,10.0,11,0.00,,,0.00,Wunderground v.1.13,2013-05-01 06:27:00,
2013-04-30 23:37:00,66.8,10.5,29.91,East,82,8.0,8.0,11,0.00,,,0.00,Wunderground v.1.13,2013-05-01 06:37:00,
2013-04-30 23:42:00,66.4,8.1,29.92,ENE,76,8.0,16.0,10,0.00,,,0.00,Wunderground v.1.13,2013-05-01 06:42:00,
2013-04-30 23:47:00,66.4,8.1,29.92,East,82,10.0,12.0,10,0.00,,,0.00,Wunderground v.1.13,2013-05-01 06:47:00,
2013-04-30 23:57:00,66.4,10.2,29.93,East,80,10.0,11.0,11,0.00,,,0.00,Wunderground v.1.13,2013-05-01 06:57:00,